Time;durP1;ratioP1;P1;durP2;ratioP2;P2;SDS_P1;SDS_P2;PMS_P1;PMS_P2;Temp;Humidity;BMP_temperature;BMP_pressure;BME280_temperature;BME280_humidity;BME280_pressure;Samples;Min_cycle;Max_cycle;Signal;HPM_P1;HPM_P2
2023/12/19 00:01:14;;;;;;;31.60;13.57;;;;;;;5.99;100.00;101301.38;4995800;28;20416;-82
2023/12/19 00:03:42;;;;;;;33.58;14.82;;;;;;;6.02;100.00;101295.50;5007691;28;20420;-81
2023/12/19 00:06:11;;;;;;;31.10;13.57;;;;;;;5.95;100.00;101292.88;5004556;28;20434;-82
2023/12/19 00:08:44;;;;;;;31.48;13.63;;;;;;;5.94;100.00;101275.84;4989041;28;20427;-79
2023/12/19 00:11:18;;;;;;;30.23;13.50;;;;;;;5.96;100.00;101289.94;5008952;28;20440;-80
2023/12/19 00:13:51;;;;;;;29.80;13.80;;;;;;;5.99;100.00;101285.97;4988212;28;20435;-80
2023/12/19 00:16:20;;;;;;;29.58;13.05;;;;;;;6.02;100.00;101299.03;5007693;28;20791;-81
2023/12/19 00:18:53;;;;;;;28.20;13.38;;;;;;;5.98;100.00;101291.63;4989278;28;20436;-82
2023/12/19 00:21:21;;;;;;;29.67;13.50;;;;;;;5.99;100.00;101282.47;4993662;28;20789;-82
2023/12/19 00:23:55;;;;;;;27.80;12.75;;;;;;;5.99;100.00;101279.78;5008405;28;20423;-80
2023/12/19 00:26:24;;;;;;;29.70;12.65;;;;;;;5.93;100.00;101284.19;4987416;28;20429;-80
2023/12/19 00:28:52;;;;;;;30.13;12.75;;;;;;;5.99;100.00;101283.28;5007092;28;20796;-80
2023/12/19 00:31:26;;;;;;;27.50;12.88;;;;;;;6.05;100.00;101285.06;4982983;28;20794;-79
2023/12/19 00:33:54;;;;;;;26.33;11.73;;;;;;;5.98;100.00;101292.47;4986042;28;20913;-80
2023/12/19 00:36:27;;;;;;;29.47;11.93;;;;;;;6.01;100.00;101300.09;5007148;28;20428;-80
2023/12/19 00:38:54;;;;;;;29.75;12.77;;;;;;;6.08;100.00;101287.28;5003207;28;20400;-80
2023/12/19 00:41:29;;;;;;;30.00;12.57;;;;;;;6.06;100.00;101288.56;4987801;28;20425;-80
2023/12/19 00:43:57;;;;;;;29.58;12.70;;;;;;;6.01;100.00;101283.03;4985398;28;20436;-81
2023/12/19 00:46:30;;;;;;;30.27;13.60;;;;;;;6.09;100.00;101280.00;4988531;28;20903;-80
2023/12/19 00:49:04;;;;;;;30.42;12.50;;;;;;;5.96;100.00;101286.44;4988448;28;20427;-80
2023/12/19 00:51:37;;;;;;;29.77;13.00;;;;;;;6.06;100.00;101277.78;4983592;28;20428;-81
2023/12/19 00:54:10;;;;;;;30.80;12.82;;;;;;;6.01;100.00;101272.25;4984002;28;20423;-81
2023/12/19 00:56:45;;;;;;;30.60;12.90;;;;;;;6.00;100.00;101259.81;4983201;28;20430;-80
2023/12/19 00:59:18;;;;;;;27.70;12.55;;;;;;;5.99;100.00;101261.66;4992206;28;20424;-81
2023/12/19 01:01:46;;;;;;;29.45;13.13;;;;;;;6.09;100.00;101266.47;4984479;28;20429;-81
2023/12/19 01:04:19;;;;;;;30.17;13.32;;;;;;;5.97;100.00;101250.25;4987000;28;21063;-81
2023/12/19 01:06:48;;;;;;;28.10;12.90;;;;;;;6.02;100.00;101261.22;4993910;28;20938;-82
2023/12/19 01:09:16;;;;;;;30.02;13.40;;;;;;;5.99;100.00;101258.16;5000969;28;20432;-83
2023/12/19 01:11:50;;;;;;;30.10;12.93;;;;;;;6.07;100.00;101253.22;4990480;28;20429;-82
2023/12/19 01:14:19;;;;;;;27.65;12.52;;;;;;;5.92;100.00;101247.44;5001401;28;20455;-80
2023/12/19 01:16:52;;;;;;;28.13;12.48;;;;;;;5.98;100.00;101253.81;5002171;28;20440;-82
2023/12/19 01:19:25;;;;;;;28.67;12.52;;;;;;;5.93;100.00;101251.78;5006752;28;20953;-81
2023/12/19 01:21:58;;;;;;;26.70;11.77;;;;;;;5.92;100.00;101267.19;5007614;28;20513;-82
2023/12/19 01:24:26;;;;;;;26.35;11.55;;;;;;;5.95;100.00;101276.66;4990457;28;20442;-82
2023/12/19 01:27:01;;;;;;;27.50;12.20;;;;;;;6.00;100.00;101266.03;5001794;28;20421;-81
2023/12/19 01:29:30;;;;;;;25.52;11.88;;;;;;;5.98;100.00;101270.00;5001013;28;20432;-82
2023/12/19 01:31:58;;;;;;;26.73;12.02;;;;;;;5.95;100.00;101266.72;4990796;28;20432;-81
2023/12/19 01:34:32;;;;;;;25.65;11.43;;;;;;;5.96;100.00;101265.63;5007381;28;20416;-80
2023/12/19 01:37:07;;;;;;;23.77;11.70;;;;;;;5.86;100.00;101262.69;5007098;28;20425;-81
2023/12/19 01:39:35;;;;;;;26.60;12.25;;;;;;;5.85;100.00;101269.16;4984589;28;20511;-81
2023/12/19 01:42:10;;;;;;;26.07;11.70;;;;;;;5.85;100.00;101255.66;4988366;28;20436;-80
2023/12/19 01:44:49;;;;;;;29.08;12.68;;;;;;;5.89;100.00;101261.41;4998207;28;20442;-80
2023/12/19 01:47:17;;;;;;;25.55;11.75;;;;;;;5.84;100.00;101256.72;4992803;28;21182;-80
2023/12/19 01:49:45;;;;;;;28.00;12.32;;;;;;;5.91;100.00;101257.44;4989006;28;20437;-82
2023/12/19 01:52:18;;;;;;;25.33;11.70;;;;;;;5.91;100.00;101267.38;4996984;28;20894;-81
2023/12/19 01:54:53;;;;;;;25.35;11.95;;;;;;;5.97;100.00;101247.56;5004165;28;20422;-81
2023/12/19 01:57:22;;;;;;;25.40;12.07;;;;;;;5.90;100.00;101236.06;5003072;28;20411;-80
2023/12/19 01:59:55;;;;;;;27.17;11.40;;;;;;;5.88;100.00;101235.44;4985086;28;20424;-82
2023/12/19 02:02:24;;;;;;;28.63;11.90;;;;;;;5.92;100.00;101218.56;4992575;28;20806;-81
2023/12/19 02:04:59;;;;;;;26.10;11.50;;;;;;;5.99;100.00;101223.84;4993883;28;20428;-82
2023/12/19 02:07:33;;;;;;;24.05;10.82;;;;;;;5.96;100.00;101213.47;5008130;28;20424;-83
2023/12/19 02:10:07;;;;;;;27.45;12.20;;;;;;;5.92;100.00;101213.16;4990064;28;20426;-81
2023/12/19 02:12:42;;;;;;;26.60;11.82;;;;;;;5.96;100.00;101202.69;4989546;28;20833;-82
2023/12/19 02:15:15;;;;;;;24.67;11.30;;;;;;;5.90;100.00;101214.44;4988730;28;20459;-82
2023/12/19 02:17:43;;;;;;;28.73;11.93;;;;;;;5.90;100.00;101212.53;5004036;28;20417;-82
2023/12/19 02:20:16;;;;;;;23.00;10.30;;;;;;;5.89;100.00;101210.09;5008917;28;20427;-82
2023/12/19 02:22:49;;;;;;;26.30;11.02;;;;;;;6.01;100.00;101212.78;4992105;28;21028;-81
2023/12/19 02:25:20;;;;;;;23.52;10.32;;;;;;;5.90;100.00;101188.25;4999104;28;20415;-81
2023/12/19 02:27:53;;;;;;;19.92;9.75;;;;;;;5.93;100.00;101189.66;4984619;28;20756;-81
2023/12/19 02:30:21;;;;;;;24.55;11.10;;;;;;;5.92;100.00;101204.22;4986823;28;20444;-81
2023/12/19 02:32:54;;;;;;;23.98;10.82;;;;;;;5.90;100.00;101201.75;4988963;28;20424;-82
2023/12/19 02:35:22;;;;;;;22.77;9.93;;;;;;;5.92;100.00;101204.22;5005204;28;20418;-81
2023/12/19 02:37:52;;;;;;;21.52;10.05;;;;;;;5.83;100.00;101198.34;5002179;28;20408;-81
2023/12/19 02:40:20;;;;;;;23.58;10.57;;;;;;;5.88;100.00;101194.94;4989867;28;20441;-83
2023/12/19 02:42:53;;;;;;;22.95;9.70;;;;;;;5.84;100.00;101194.59;4984478;28;20893;-82
2023/12/19 02:45:22;;;;;;;20.92;9.73;;;;;;;5.80;100.00;101196.13;4986483;28;20430;-81
2023/12/19 02:47:51;;;;;;;21.77;9.87;;;;;;;5.94;100.00;101188.59;4986085;28;20435;-82
2023/12/19 02:50:19;;;;;;;20.50;9.80;;;;;;;5.81;100.00;101199.63;5005394;28;20514;-81
2023/12/19 02:52:48;;;;;;;19.73;9.70;;;;;;;5.84;100.00;101199.16;4986270;28;20435;-82
2023/12/19 02:55:22;;;;;;;21.50;9.90;;;;;;;5.79;100.00;101189.88;4993863;28;20440;-82
2023/12/19 02:57:51;;;;;;;20.17;9.07;;;;;;;5.85;100.00;101179.19;4987560;28;20446;-81
2023/12/19 03:00:24;;;;;;;20.42;9.57;;;;;;;5.91;100.00;101170.97;5004113;28;20446;-81
2023/12/19 03:02:52;;;;;;;21.60;9.45;;;;;;;5.89;100.00;101175.78;5006986;28;20832;-81
2023/12/19 03:05:25;;;;;;;18.88;8.65;;;;;;;5.95;100.00;101180.25;5007400;28;20428;-82
2023/12/19 03:07:55;;;;;;;17.10;8.02;;;;;;;5.80;100.00;101171.81;5005042;28;20426;-81
2023/12/19 03:10:24;;;;;;;17.35;8.35;;;;;;;5.87;100.00;101179.78;4989759;28;20439;-84
2023/12/19 03:12:52;;;;;;;18.25;8.38;;;;;;;5.84;100.00;101178.38;4990036;28;20422;-81
2023/12/19 03:15:20;;;;;;;15.48;7.50;;;;;;;5.82;100.00;101176.97;5008454;28;20432;-80
2023/12/19 03:17:54;;;;;;;19.08;8.30;;;;;;;5.84;100.00;101172.16;5010461;28;20441;-80
2023/12/19 03:20:22;;;;;;;18.38;8.68;;;;;;;5.77;100.00;101169.56;4984611;28;20438;-82
2023/12/19 03:22:55;;;;;;;18.15;8.57;;;;;;;5.82;100.00;101164.28;4995921;28;20430;-80
2023/12/19 03:25:25;;;;;;;19.88;8.95;;;;;;;5.79;100.00;101148.56;4994557;28;20421;-80
2023/12/19 03:27:58;;;;;;;18.40;8.80;;;;;;;5.79;100.00;101162.88;5005327;28;21350;-81
2023/12/19 03:30:26;;;;;;;19.25;8.85;;;;;;;5.77;100.00;101159.59;5008007;28;21112;-82
2023/12/19 03:32:59;;;;;;;20.13;9.17;;;;;;;5.71;100.00;101165.94;4992738;28;20428;-80
2023/12/19 03:35:27;;;;;;;21.67;9.02;;;;;;;5.85;100.00;101163.00;5008095;28;20421;-80
2023/12/19 03:37:56;;;;;;;20.93;9.50;;;;;;;5.80;100.00;101177.22;4984032;28;20437;-81
2023/12/19 03:40:30;;;;;;;20.48;9.45;;;;;;;5.75;100.00;101169.81;4991048;28;20430;-81
2023/12/19 03:43:04;;;;;;;20.92;9.18;;;;;;;5.78;100.00;101173.91;4988930;28;20433;-80
2023/12/19 03:45:37;;;;;;;19.75;9.60;;;;;;;5.83;100.00;101165.94;5007585;28;20420;-81
2023/12/19 03:48:06;;;;;;;21.70;9.52;;;;;;;5.81;100.00;101170.72;4989195;28;20433;-81
2023/12/19 03:50:35;;;;;;;20.75;9.10;;;;;;;5.75;100.00;101169.00;4992324;28;20433;-81
2023/12/19 03:53:03;;;;;;;19.58;8.50;;;;;;;5.81;100.00;101156.41;5002508;28;20830;-82
2023/12/19 03:55:33;;;;;;;20.65;9.05;;;;;;;5.79;100.00;101151.25;4994442;28;20448;-81
2023/12/19 03:58:01;;;;;;;19.53;8.87;;;;;;;5.84;100.00;101147.84;4991583;28;20502;-80
2023/12/19 04:00:34;;;;;;;19.13;8.40;;;;;;;5.83;100.00;101159.69;4986047;28;20447;-81
2023/12/19 04:03:07;;;;;;;17.95;8.32;;;;;;;5.92;100.00;101142.06;5004612;28;20525;-80
2023/12/19 04:05:35;;;;;;;16.60;8.43;;;;;;;5.82;100.00;101155.38;4995051;28;20432;-80
2023/12/19 04:08:04;;;;;;;18.48;8.32;;;;;;;5.79;100.00;101167.47;4992455;28;20451;-81
2023/12/19 04:10:34;;;;;;;19.45;8.32;;;;;;;5.82;100.00;101153.47;4991958;28;20447;-81
2023/12/19 04:13:01;;;;;;;17.02;7.47;;;;;;;5.76;100.00;101157.94;5009611;28;20991;-83
2023/12/19 04:15:34;;;;;;;18.40;7.82;;;;;;;5.73;100.00;101150.31;4985167;28;20437;-81
2023/12/19 04:18:09;;;;;;;17.38;7.68;;;;;;;5.71;100.00;101144.31;4990965;28;21073;-82
2023/12/19 04:20:42;;;;;;;17.33;7.78;;;;;;;5.77;100.00;101142.56;4992714;28;20936;-80
2023/12/19 04:23:12;;;;;;;14.32;7.10;;;;;;;5.82;100.00;101139.97;5002023;28;20437;-80
2023/12/19 04:25:47;;;;;;;14.32;7.07;;;;;;;5.72;100.00;101137.06;4989999;28;20429;-80
2023/12/19 04:28:16;;;;;;;17.63;7.70;;;;;;;5.65;100.00;101109.34;5007890;28;20415;-80
2023/12/19 04:30:44;;;;;;;16.20;7.30;;;;;;;5.68;100.00;101123.19;4992898;28;20423;-81
2023/12/19 04:33:13;;;;;;;15.32;7.60;;;;;;;5.67;100.00;101115.34;4977536;28;20951;-80
2023/12/19 04:35:46;;;;;;;16.30;7.50;;;;;;;5.65;100.00;101103.94;4984856;28;20430;-81
2023/12/19 04:38:15;;;;;;;15.32;7.18;;;;;;;5.70;100.00;101109.47;5003858;28;20429;-81
2023/12/19 04:40:43;;;;;;;17.67;7.65;;;;;;;5.65;100.00;101118.28;5004192;28;20435;-81
2023/12/19 04:43:13;;;;;;;15.30;7.20;;;;;;;5.64;100.00;101118.50;5008548;28;20437;-80
2023/12/19 04:45:46;;;;;;;14.68;7.00;;;;;;;5.65;100.00;101102.06;4992449;28;20785;-81
2023/12/19 04:48:19;;;;;;;16.15;6.93;;;;;;;5.62;100.00;101094.44;5001015;28;20917;-80
2023/12/19 04:50:47;;;;;;;17.00;7.13;;;;;;;5.70;100.00;101083.25;4990061;28;20434;-81
2023/12/19 04:53:21;;;;;;;16.90;7.37;;;;;;;5.68;100.00;101087.28;4994865;28;20932;-80
2023/12/19 04:55:54;;;;;;;16.75;7.05;;;;;;;5.72;100.00;101086.56;5006831;28;20447;-81
2023/12/19 04:58:23;;;;;;;15.00;6.73;;;;;;;5.74;100.00;101089.84;4985097;28;20498;-83
2023/12/19 05:00:53;;;;;;;14.27;7.10;;;;;;;5.70;100.00;101098.66;4982235;28;20895;-80
2023/12/19 05:03:26;;;;;;;17.50;7.72;;;;;;;5.66;100.00;101094.78;4990623;28;20433;-80
2023/12/19 05:05:59;;;;;;;15.93;7.68;;;;;;;5.70;100.00;101098.66;4991659;28;20444;-80
2023/12/19 05:08:28;;;;;;;15.95;6.85;;;;;;;5.72;100.00;101104.66;4980221;28;20989;-80
2023/12/19 05:10:56;;;;;;;14.17;6.80;;;;;;;5.69;100.00;101097.84;4989798;28;20460;-83
2023/12/19 05:13:26;;;;;;;16.02;6.50;;;;;;;5.72;100.00;101083.88;4983707;28;20441;-81
2023/12/19 05:15:54;;;;;;;14.85;6.82;;;;;;;5.74;100.00;101083.63;4993079;28;20433;-80
2023/12/19 05:18:27;;;;;;;13.23;6.40;;;;;;;5.70;100.00;101077.06;4983468;28;20433;-80
2023/12/19 05:21:00;;;;;;;13.70;6.53;;;;;;;5.68;100.00;101085.41;4981919;28;20431;-80
2023/12/19 05:23:29;;;;;;;14.98;6.72;;;;;;;5.72;100.00;101078.47;4982161;28;20437;-81
2023/12/19 05:26:02;;;;;;;15.50;7.03;;;;;;;5.72;100.00;101080.34;4993796;28;20437;-80
2023/12/19 05:28:37;;;;;;;15.13;6.60;;;;;;;5.68;100.00;101076.47;4988033;28;20444;-81
2023/12/19 05:31:05;;;;;;;13.85;6.60;;;;;;;5.68;100.00;101065.69;4983155;28;20766;-81
2023/12/19 05:33:34;;;;;;;13.25;5.68;;;;;;;5.70;100.00;101061.66;4991927;28;20434;-79
2023/12/19 05:36:08;;;;;;;13.90;6.20;;;;;;;5.64;100.00;101045.63;4988686;28;20906;-81
2023/12/19 05:38:36;;;;;;;13.15;6.20;;;;;;;5.59;100.00;101040.91;5002927;28;21117;-81
2023/12/19 05:41:05;;;;;;;11.70;5.60;;;;;;;5.63;100.00;101058.28;4992646;28;20425;-80
2023/12/19 05:43:33;;;;;;;11.25;5.43;;;;;;;5.65;100.00;101055.34;5004638;28;20959;-81
2023/12/19 05:46:08;;;;;;;12.15;5.82;;;;;;;5.62;100.00;101056.63;4986484;28;20428;-80
2023/12/19 05:48:36;;;;;;;13.18;5.78;;;;;;;5.66;100.00;101052.38;4988372;28;20451;-80
2023/12/19 05:51:09;;;;;;;11.80;5.50;;;;;;;5.64;100.00;101046.41;5003693;28;22532;-80
2023/12/19 05:53:42;;;;;;;12.05;5.53;;;;;;;5.66;100.00;101051.59;5004617;28;20439;-79
2023/12/19 05:56:13;;;;;;;10.95;5.45;;;;;;;5.60;100.00;101058.75;5002525;28;20901;-80
2023/12/19 05:58:46;;;;;;;11.02;5.63;;;;;;;5.54;100.00;101046.22;4999098;28;20427;-79
2023/12/19 06:01:24;;;;;;;11.88;5.85;;;;;;;5.61;100.00;101060.41;4990522;28;20437;-80
2023/12/19 06:03:52;;;;;;;11.18;5.32;;;;;;;5.60;100.00;101058.75;4990807;28;20443;-81
2023/12/19 06:06:25;;;;;;;13.40;5.47;;;;;;;5.65;100.00;101061.56;5003249;28;20949;-79
2023/12/19 06:08:58;;;;;;;11.25;5.38;;;;;;;5.60;100.00;101053.34;4993231;28;20448;-82
2023/12/19 06:11:27;;;;;;;10.38;5.10;;;;;;;5.65;100.00;101050.78;4988602;28;20445;-80
2023/12/19 06:13:55;;;;;;;10.93;4.82;;;;;;;5.61;100.00;101057.72;4988630;28;20817;-79
2023/12/19 06:16:30;;;;;;;10.80;5.13;;;;;;;5.60;100.00;101062.25;4993525;28;20438;-80
2023/12/19 06:19:04;;;;;;;9.70;4.57;;;;;;;5.53;100.00;101058.06;5006118;28;20432;-79
2023/12/19 06:21:38;;;;;;;10.32;4.75;;;;;;;5.58;100.00;101060.88;4982173;28;20925;-79
2023/12/19 06:24:11;;;;;;;9.57;4.30;;;;;;;5.64;100.00;101049.13;5010052;28;20420;-81
2023/12/19 06:26:44;;;;;;;9.88;4.75;;;;;;;5.55;100.00;101055.94;5000455;28;20424;-80
2023/12/19 06:29:12;;;;;;;11.45;4.60;;;;;;;5.58;100.00;101060.88;5000929;28;20894;-79
2023/12/19 06:31:47;;;;;;;9.20;4.53;;;;;;;5.54;100.00;101057.81;4979302;28;20445;-79
2023/12/19 06:34:15;;;;;;;8.80;4.25;;;;;;;5.47;100.00;101053.59;4988808;28;20449;-79
2023/12/19 06:36:48;;;;;;;11.38;4.32;;;;;;;5.51;100.00;101055.59;4996940;28;20433;-79
2023/12/19 06:39:16;;;;;;;11.13;4.30;;;;;;;5.55;100.00;101043.28;4996776;28;20423;-79
2023/12/19 06:41:49;;;;;;;9.00;4.23;;;;;;;5.57;100.00;101029.53;4984353;28;20418;-79
2023/12/19 06:44:17;;;;;;;7.75;3.83;;;;;;;5.53;100.00;101036.47;5008799;28;20424;-79
2023/12/19 06:46:52;;;;;;;10.13;4.32;;;;;;;5.53;100.00;101048.06;4996929;28;20439;-79
2023/12/19 06:49:20;;;;;;;8.98;4.03;;;;;;;5.54;100.00;101051.63;5004149;28;20430;-79
2023/12/19 06:51:54;;;;;;;9.07;3.80;;;;;;;5.57;100.00;101046.53;4996621;28;20422;-78
2023/12/19 06:54:27;;;;;;;8.03;4.00;;;;;;;5.57;100.00;101054.66;4994361;28;20463;-80
2023/12/19 06:57:01;;;;;;;7.75;3.60;;;;;;;5.51;100.00;101052.91;5005489;28;20424;-79
2023/12/19 06:59:34;;;;;;;7.35;3.40;;;;;;;5.46;100.00;101044.69;4992129;28;20436;-78
2023/12/19 07:02:08;;;;;;;7.90;3.60;;;;;;;5.44;100.00;101038.69;5005410;28;20436;-81
2023/12/19 07:04:36;;;;;;;7.28;3.13;;;;;;;5.49;100.00;101044.22;4980103;28;20889;-79
2023/12/19 07:07:10;;;;;;;6.57;3.08;;;;;;;5.46;100.00;101042.00;4982776;28;20443;-78
2023/12/19 07:09:43;;;;;;;6.63;2.95;;;;;;;5.55;100.00;101045.13;5009386;28;20431;-79
2023/12/19 07:12:11;;;;;;;5.60;2.70;;;;;;;5.43;100.00;101051.38;4991584;28;20453;-79
2023/12/19 07:14:44;;;;;;;6.33;2.80;;;;;;;5.46;100.00;101052.78;4991694;28;20437;-79
2023/12/19 07:17:19;;;;;;;6.28;2.78;;;;;;;5.46;100.00;101060.88;4993195;28;20951;-80
2023/12/19 07:19:47;;;;;;;5.05;2.30;;;;;;;5.41;100.00;101053.50;5007006;28;21025;-81
2023/12/19 07:22:20;;;;;;;6.00;2.50;;;;;;;5.51;100.00;101039.41;4993746;28;20432;-79
2023/12/19 07:24:54;;;;;;;4.82;2.30;;;;;;;5.43;100.00;101027.09;4986235;28;20445;-81
2023/12/19 07:27:27;;;;;;;4.68;2.40;;;;;;;5.48;100.00;101026.38;4992573;28;20436;-79
2023/12/19 07:30:00;;;;;;;5.15;2.22;;;;;;;5.35;100.00;101035.53;4991166;28;20424;-81
2023/12/19 07:32:35;;;;;;;4.22;2.10;;;;;;;5.40;100.00;101034.81;5005264;28;20877;-81
2023/12/19 07:35:09;;;;;;;5.57;2.22;;;;;;;5.44;100.00;101026.03;5007818;28;20437;-81
2023/12/19 07:37:43;;;;;;;3.97;2.00;;;;;;;5.44;100.00;101028.72;4999067;28;20812;-79
2023/12/19 07:40:12;;;;;;;3.60;2.00;;;;;;;5.53;100.00;101021.09;4994177;28;20432;-80
2023/12/19 07:42:41;;;;;;;4.50;2.13;;;;;;;5.44;100.00;101014.41;4986969;28;20437;-79
2023/12/19 07:45:09;;;;;;;3.85;1.90;;;;;;;5.43;100.00;101001.97;5005791;28;20422;-79
2023/12/19 07:47:39;;;;;;;4.40;2.00;;;;;;;5.39;100.00;101004.31;4993548;28;20442;-81
2023/12/19 07:50:10;;;;;;;3.65;1.90;;;;;;;5.50;100.00;101013.47;5001850;28;20437;-80
2023/12/19 07:52:44;;;;;;;6.22;2.00;;;;;;;5.42;100.00;101008.44;5008793;28;20428;-79
2023/12/19 07:55:12;;;;;;;4.22;2.00;;;;;;;5.42;100.00;101001.16;4990549;28;20921;-81
2023/12/19 07:57:40;;;;;;;3.47;1.70;;;;;;;5.42;100.00;100984.94;4985693;28;20436;-80
2023/12/19 08:00:11;;;;;;;3.08;1.80;;;;;;;5.43;100.00;100988.50;5004311;28;20422;-80
2023/12/19 08:02:49;;;;;;;3.65;1.83;;;;;;;5.50;100.00;100986.47;5010962;28;20917;-79
2023/12/19 08:05:17;;;;;;;2.93;1.70;;;;;;;5.42;100.00;100987.66;5006057;28;20913;-78
2023/12/19 08:07:46;;;;;;;2.60;1.48;;;;;;;5.45;100.00;100994.44;5009844;28;20425;-79
2023/12/19 08:10:14;;;;;;;4.05;1.70;;;;;;;5.41;100.00;100998.69;4996085;28;20437;-79
2023/12/19 08:12:47;;;;;;;3.08;1.60;;;;;;;5.43;100.00;100994.69;5007966;28;20432;-81
2023/12/19 08:15:20;;;;;;;3.17;1.70;;;;;;;5.43;100.00;100991.19;5004685;28;21233;-80
2023/12/19 08:17:55;;;;;;;3.47;1.80;;;;;;;5.42;100.00;100987.66;4992365;28;20433;-80
2023/12/19 08:20:24;;;;;;;3.78;1.70;;;;;;;5.48;100.00;100991.28;5004589;28;20418;-79
2023/12/19 08:22:52;;;;;;;3.42;1.67;;;;;;;5.39;100.00;100981.91;5008436;28;20428;-80
2023/12/19 08:25:25;;;;;;;2.85;1.52;;;;;;;5.51;100.00;100982.72;4988019;28;20798;-79
2023/12/19 08:27:53;;;;;;;3.97;1.80;;;;;;;5.46;100.00;100971.81;5009878;28;20416;-79
2023/12/19 08:30:22;;;;;;;3.17;1.63;;;;;;;5.36;100.00;100958.94;5004596;28;20409;-79
2023/12/19 08:32:51;;;;;;;2.78;1.60;;;;;;;5.41;100.00;100967.13;4991668;28;20434;-79
2023/12/19 08:35:21;;;;;;;3.80;1.60;;;;;;;5.46;100.00;100963.72;4985634;28;20417;-81
2023/12/19 08:37:54;;;;;;;3.88;1.52;;;;;;;5.37;100.00;100957.88;5009045;28;20421;-81
2023/12/19 08:40:27;;;;;;;4.00;1.63;;;;;;;5.41;100.00;100958.19;5000802;28;20434;-78
2023/12/19 08:43:00;;;;;;;3.05;1.65;;;;;;;5.47;100.00;100957.25;4987531;28;20803;-79
2023/12/19 08:45:28;;;;;;;3.28;1.63;;;;;;;5.55;100.00;100956.88;4993760;28;20439;-78
2023/12/19 08:48:03;;;;;;;2.77;1.40;;;;;;;5.53;100.00;100947.38;4991095;28;20443;-79
2023/12/19 08:50:32;;;;;;;3.15;1.52;;;;;;;5.44;100.00;100934.25;5009614;28;20483;-78
2023/12/19 08:53:01;;;;;;;3.10;1.50;;;;;;;5.46;100.00;100947.50;4988318;28;20447;-83
2023/12/19 08:55:30;;;;;;;2.53;1.50;;;;;;;5.42;100.00;100944.47;4988158;28;20441;-80
2023/12/19 08:57:58;;;;;;;2.60;1.40;;;;;;;5.40;100.00;100940.34;5007749;28;20420;-79
2023/12/19 09:00:31;;;;;;;2.75;1.40;;;;;;;5.42;100.00;100943.66;5007201;28;21144;-80
2023/12/19 09:03:05;;;;;;;4.00;1.50;;;;;;;5.36;100.00;100937.34;4993111;28;20503;-80
2023/12/19 09:05:39;;;;;;;3.80;1.20;;;;;;;5.36;100.00;100934.63;5006106;28;20423;-80
2023/12/19 09:08:08;;;;;;;1.98;1.20;;;;;;;5.39;100.00;100938.75;5002205;28;20427;-82
2023/12/19 09:10:36;;;;;;;4.80;1.40;;;;;;;5.36;100.00;100931.94;4989403;28;20443;-79
2023/12/19 09:13:05;;;;;;;1.98;1.20;;;;;;;5.34;100.00;100938.63;4988892;28;20440;-78
2023/12/19 09:15:38;;;;;;;4.97;1.20;;;;;;;5.35;100.00;100932.19;4989866;28;20932;-78
2023/12/19 09:18:11;;;;;;;2.10;1.20;;;;;;;5.34;100.00;100938.63;4982982;28;20778;-79
2023/12/19 09:20:41;;;;;;;2.00;1.10;;;;;;;5.36;100.00;100941.88;5011344;28;20417;-79
2023/12/19 09:23:09;;;;;;;1.70;1.10;;;;;;;5.30;100.00;100938.28;4978018;28;20438;-78
2023/12/19 09:25:38;;;;;;;1.40;0.80;;;;;;;5.45;100.00;100943.16;4990628;28;20441;-82
2023/12/19 09:28:21;;;;;;;1.70;1.05;;;;;;;5.37;100.00;100924.66;5088951;27;20960;-81
2023/12/19 09:30:49;;;;;;;3.17;1.00;;;;;;;5.40;100.00;100914.19;5063156;28;20781;-80
2023/12/19 09:33:22;;;;;;;1.90;1.00;;;;;;;5.37;100.00;100908.44;5060432;28;20904;-79
2023/12/19 09:35:51;;;;;;;2.00;1.00;;;;;;;5.36;100.00;100913.03;5044908;28;20436;-82
2023/12/19 09:38:24;;;;;;;2.28;1.00;;;;;;;5.37;100.00;100920.09;5047649;28;20506;-81
2023/12/19 09:40:57;;;;;;;2.13;1.10;;;;;;;5.46;100.00;100923.22;5062562;28;20420;-80
2023/12/19 09:43:31;;;;;;;1.60;1.00;;;;;;;5.54;100.00;100919.34;5047760;28;20439;-80
2023/12/19 09:46:02;;;;;;;1.67;1.00;;;;;;;5.52;100.00;100916.84;5043456;28;20432;-84
2023/12/19 09:48:38;;;;;;;1.23;0.80;;;;;;;5.45;100.00;100910.78;5075684;28;20428;-86
2023/12/19 09:51:20;;;;;;;1.70;0.90;;;;;;;5.46;100.00;100909.72;5063024;28;20425;-82
2023/12/19 09:53:55;;;;;;;1.40;0.80;;;;;;;5.48;100.00;100904.09;5060120;28;20426;-82
2023/12/19 09:56:28;;;;;;;1.90;0.90;;;;;;;5.66;100.00;100895.78;5062478;28;20773;-82
2023/12/19 09:59:04;;;;;;;1.85;0.90;;;;;;;5.57;100.00;100895.34;5044230;28;20428;-82
2023/12/19 10:01:38;;;;;;;1.70;0.90;;;;;;;5.57;100.00;100892.66;5060051;28;20429;-82
2023/12/19 10:04:13;;;;;;;1.65;1.00;;;;;;;5.66;100.00;100878.78;5068494;28;20437;-82
2023/12/19 10:06:43;;;;;;;1.25;0.90;;;;;;;5.72;100.00;100875.13;5041153;28;20423;-84
2023/12/19 10:09:16;;;;;;;2.38;0.80;;;;;;;5.75;100.00;100861.94;5051837;28;20419;-83
2023/12/19 10:11:45;;;;;;;1.20;0.80;;;;;;;5.65;100.00;100863.63;5057860;28;20439;-84
2023/12/19 10:14:14;;;;;;;3.73;0.93;;;;;;;5.66;100.00;100876.06;5060479;28;20434;-84
2023/12/19 10:16:47;;;;;;;1.23;0.80;;;;;;;5.67;100.00;100861.50;5053144;28;20431;-82
2023/12/19 10:19:26;;;;;;;1.10;0.82;;;;;;;5.58;100.00;100858.41;5050430;28;20438;-85
2023/12/19 10:22:06;;;;;;;1.20;0.80;;;;;;;5.66;100.00;100849.88;5062144;28;20438;-82
2023/12/19 10:24:34;;;;;;;0.95;0.80;;;;;;;5.67;100.00;100838.03;5058978;28;20434;-83
2023/12/19 10:27:07;;;;;;;1.15;0.68;;;;;;;5.53;100.00;100823.19;5061958;28;20933;-85
2023/12/19 10:29:42;;;;;;;1.10;0.80;;;;;;;5.63;100.00;100809.88;5056612;28;20427;-83
2023/12/19 10:32:16;;;;;;;2.07;0.87;;;;;;;5.58;100.00;100816.00;5060685;28;20465;-84
2023/12/19 10:34:45;;;;;;;3.55;0.85;;;;;;;5.60;100.00;100818.47;5062653;28;21330;-84
2023/12/19 10:37:17;;;;;;;3.15;1.20;;;;;;;5.70;100.00;100824.03;5073818;28;20440;-83
2023/12/19 10:39:51;;;;;;;2.03;1.00;;;;;;;5.65;100.00;100807.75;5039250;28;20455;-81
2023/12/19 10:42:24;;;;;;;1.60;0.80;;;;;;;5.67;100.00;100807.50;5040639;28;20431;-83
2023/12/19 10:45:00;;;;;;;1.10;0.80;;;;;;;5.62;100.00;100800.13;5046769;28;20427;-84
2023/12/19 10:47:28;;;;;;;1.38;0.90;;;;;;;5.67;100.00;100800.22;5035153;28;20522;-82
2023/12/19 10:50:02;;;;;;;1.42;0.98;;;;;;;5.69;100.00;100808.06;5040042;28;20441;-84
2023/12/19 10:52:37;;;;;;;0.93;0.70;;;;;;;5.67;100.00;100811.03;5048894;28;20427;-81
2023/12/19 10:55:15;;;;;;;5.20;0.90;;;;;;;5.65;100.00;100810.47;5044745;28;20447;-81
2023/12/19 10:57:48;;;;;;;1.30;0.90;;;;;;;5.58;100.00;100801.69;5037414;28;20427;-83
2023/12/19 11:00:25;;;;;;;1.50;0.90;;;;;;;5.66;100.00;100790.47;5048922;28;20442;-86
2023/12/19 11:03:07;;;;;;;1.37;0.83;;;;;;;5.61;100.00;100780.41;5037680;28;20474;-84
2023/12/19 11:05:41;;;;;;;1.92;1.10;;;;;;;5.70;100.00;100764.63;5044380;28;20439;-82
2023/12/19 11:08:17;;;;;;;1.45;0.98;;;;;;;5.82;100.00;100758.34;5006985;28;20469;-84
2023/12/19 11:10:54;;;;;;;0.98;0.80;;;;;;;5.75;100.00;100764.72;5047859;28;20423;-82
2023/12/19 11:13:24;;;;;;;2.53;1.00;;;;;;;5.68;100.00;100758.66;5045391;28;20430;-83
2023/12/19 11:16:04;;;;;;;1.33;1.00;;;;;;;5.73;100.00;100757.91;5051241;28;20435;-81
2023/12/19 11:18:45;;;;;;;1.27;1.00;;;;;;;5.78;100.00;100760.72;5036655;28;20421;-83
2023/12/19 11:21:18;;;;;;;1.97;1.00;;;;;;;5.64;100.00;100754.81;5045533;28;20500;-83
2023/12/19 11:24:03;;;;;;;1.58;1.00;;;;;;;5.69;100.00;100743.28;5049396;28;22054;-82
2023/12/19 11:26:36;;;;;;;1.30;1.00;;;;;;;5.72;100.00;100735.50;5057636;28;20426;-83
2023/12/19 11:29:05;;;;;;;2.30;1.00;;;;;;;5.68;100.00;100726.25;5036064;28;20435;-83
2023/12/19 11:31:36;;;;;;;1.60;0.93;;;;;;;5.72;100.00;100724.72;5040871;28;20462;-83
2023/12/19 11:34:22;;;;;;;1.80;1.08;;;;;;;5.81;100.00;100732.41;5035996;28;20601;-83
2023/12/19 11:37:02;;;;;;;1.98;1.20;;;;;;;5.85;100.00;100725.44;5053318;28;20438;-85
2023/12/19 11:39:31;;;;;;;3.45;1.17;;;;;;;5.77;100.00;100722.09;5037634;28;21061;-85